sensor_id;sensor_type;location;lat;lon;timestamp;P1;durP1;ratioP1;P2;durP2;ratioP2
76626;SDS011;65519;53.230;10.390;2023-04-07T00:00:20;29.08;;;15.13;;
76626;SDS011;65519;53.230;10.390;2023-04-07T00:02:45;31.45;;;15.32;;
76626;SDS011;65519;53.230;10.390;2023-04-07T00:05:11;33.60;;;15.02;;
76626;SDS011;65519;53.230;10.390;2023-04-07T00:07:36;30.55;;;15.13;;
76626;SDS011;65519;53.230;10.390;2023-04-07T00:10:02;28.42;;;13.40;;
76626;SDS011;65519;53.230;10.390;2023-04-07T00:12:27;29.92;;;14.45;;
76626;SDS011;65519;53.230;10.390;2023-04-07T00:14:52;26.95;;;14.00;;
76626;SDS011;65519;53.230;10.390;2023-04-07T00:17:18;29.15;;;16.00;;
76626;SDS011;65519;53.230;10.390;2023-04-07T00:19:43;28.48;;;14.77;;
76626;SDS011;65519;53.230;10.390;2023-04-07T00:22:09;31.77;;;14.32;;
76626;SDS011;65519;53.230;10.390;2023-04-07T00:24:34;27.60;;;15.00;;
76626;SDS011;65519;53.230;10.390;2023-04-07T00:26:59;26.88;;;13.85;;
76626;SDS011;65519;53.230;10.390;2023-04-07T00:29:25;28.88;;;14.88;;
76626;SDS011;65519;53.230;10.390;2023-04-07T00:31:50;27.15;;;15.10;;
76626;SDS011;65519;53.230;10.390;2023-04-07T00:34:16;27.02;;;14.38;;
76626;SDS011;65519;53.230;10.390;2023-04-07T00:36:41;29.70;;;14.27;;
76626;SDS011;65519;53.230;10.390;2023-04-07T00:39:06;25.95;;;14.32;;
76626;SDS011;65519;53.230;10.390;2023-04-07T00:41:35;31.13;;;14.87;;
76626;SDS011;65519;53.230;10.390;2023-04-07T00:44:01;27.23;;;14.10;;
76626;SDS011;65519;53.230;10.390;2023-04-07T00:46:26;30.63;;;15.95;;
76626;SDS011;65519;53.230;10.390;2023-04-07T00:48:52;25.13;;;13.68;;
76626;SDS011;65519;53.230;10.390;2023-04-07T00:51:19;27.35;;;14.80;;
76626;SDS011;65519;53.230;10.390;2023-04-07T00:53:46;28.50;;;14.82;;
76626;SDS011;65519;53.230;10.390;2023-04-07T00:56:11;25.52;;;14.25;;
76626;SDS011;65519;53.230;10.390;2023-04-07T00:58:37;31.53;;;13.47;;
76626;SDS011;65519;53.230;10.390;2023-04-07T01:01:14;27.20;;;13.55;;
76626;SDS011;65519;53.230;10.390;2023-04-07T01:03:48;22.58;;;13.65;;
76626;SDS011;65519;53.230;10.390;2023-04-07T01:06:19;27.17;;;14.55;;
76626;SDS011;65519;53.230;10.390;2023-04-07T01:08:50;26.20;;;13.57;;
76626;SDS011;65519;53.230;10.390;2023-04-07T01:11:23;23.48;;;14.15;;
76626;SDS011;65519;53.230;10.390;2023-04-07T01:13:52;26.42;;;14.45;;
76626;SDS011;65519;53.230;10.390;2023-04-07T01:16:21;25.80;;;14.45;;
76626;SDS011;65519;53.230;10.390;2023-04-07T01:18:53;26.05;;;14.65;;
76626;SDS011;65519;53.230;10.390;2023-04-07T01:21:19;26.52;;;12.43;;
76626;SDS011;65519;53.230;10.390;2023-04-07T01:23:51;24.42;;;14.15;;
76626;SDS011;65519;53.230;10.390;2023-04-07T01:26:31;25.08;;;13.77;;
76626;SDS011;65519;53.230;10.390;2023-04-07T01:31:43;28.52;;;14.55;;
76626;SDS011;65519;53.230;10.390;2023-04-07T01:34:12;30.02;;;12.90;;
76626;SDS011;65519;53.230;10.390;2023-04-07T01:36:39;26.42;;;13.73;;
76626;SDS011;65519;53.230;10.390;2023-04-07T01:39:06;23.40;;;13.88;;
76626;SDS011;65519;53.230;10.390;2023-04-07T01:41:33;23.60;;;13.68;;
76626;SDS011;65519;53.230;10.390;2023-04-07T01:43:59;20.20;;;11.93;;
76626;SDS011;65519;53.230;10.390;2023-04-07T01:46:26;21.67;;;13.48;;
76626;SDS011;65519;53.230;10.390;2023-04-07T01:48:52;23.23;;;13.18;;
76626;SDS011;65519;53.230;10.390;2023-04-07T01:51:20;20.48;;;12.68;;
76626;SDS011;65519;53.230;10.390;2023-04-07T01:53:47;17.42;;;11.98;;
76626;SDS011;65519;53.230;10.390;2023-04-07T01:56:13;23.38;;;11.82;;
76626;SDS011;65519;53.230;10.390;2023-04-07T01:58:40;19.75;;;11.82;;
76626;SDS011;65519;53.230;10.390;2023-04-07T02:01:06;22.65;;;13.05;;
76626;SDS011;65519;53.230;10.390;2023-04-07T02:03:35;23.00;;;11.52;;
76626;SDS011;65519;53.230;10.390;2023-04-07T02:06:05;22.40;;;11.98;;
76626;SDS011;65519;53.230;10.390;2023-04-07T02:10:57;21.30;;;10.98;;
76626;SDS011;65519;53.230;10.390;2023-04-07T02:13:25;17.38;;;11.43;;
76626;SDS011;65519;53.230;10.390;2023-04-07T02:15:52;23.35;;;11.18;;
76626;SDS011;65519;53.230;10.390;2023-04-07T02:18:19;22.33;;;11.85;;
76626;SDS011;65519;53.230;10.390;2023-04-07T02:20:46;23.25;;;12.18;;
76626;SDS011;65519;53.230;10.390;2023-04-07T02:23:12;26.20;;;12.38;;
76626;SDS011;65519;53.230;10.390;2023-04-07T02:25:38;20.02;;;12.13;;
76626;SDS011;65519;53.230;10.390;2023-04-07T02:28:04;24.20;;;12.02;;
76626;SDS011;65519;53.230;10.390;2023-04-07T02:30:30;24.58;;;11.57;;
76626;SDS011;65519;53.230;10.390;2023-04-07T02:32:56;22.20;;;11.75;;
76626;SDS011;65519;53.230;10.390;2023-04-07T02:35:22;23.70;;;12.52;;
76626;SDS011;65519;53.230;10.390;2023-04-07T02:37:47;20.27;;;10.68;;
76626;SDS011;65519;53.230;10.390;2023-04-07T02:40:13;21.60;;;11.18;;
76626;SDS011;65519;53.230;10.390;2023-04-07T02:42:38;24.13;;;12.88;;
76626;SDS011;65519;53.230;10.390;2023-04-07T02:45:05;21.80;;;11.45;;
76626;SDS011;65519;53.230;10.390;2023-04-07T02:47:31;23.80;;;12.13;;
76626;SDS011;65519;53.230;10.390;2023-04-07T02:49:57;18.85;;;10.88;;
76626;SDS011;65519;53.230;10.390;2023-04-07T02:52:22;19.53;;;11.37;;
76626;SDS011;65519;53.230;10.390;2023-04-07T02:54:48;20.60;;;11.77;;
76626;SDS011;65519;53.230;10.390;2023-04-07T02:57:13;20.35;;;11.05;;
76626;SDS011;65519;53.230;10.390;2023-04-07T02:59:39;21.25;;;10.80;;
76626;SDS011;65519;53.230;10.390;2023-04-07T03:02:05;24.10;;;12.50;;
76626;SDS011;65519;53.230;10.390;2023-04-07T03:04:30;24.02;;;12.90;;
76626;SDS011;65519;53.230;10.390;2023-04-07T03:06:56;20.67;;;11.75;;
76626;SDS011;65519;53.230;10.390;2023-04-07T03:09:21;18.58;;;11.18;;
76626;SDS011;65519;53.230;10.390;2023-04-07T03:11:47;18.80;;;11.18;;
76626;SDS011;65519;53.230;10.390;2023-04-07T03:14:12;22.30;;;12.38;;
76626;SDS011;65519;53.230;10.390;2023-04-07T03:16:38;24.83;;;10.68;;
76626;SDS011;65519;53.230;10.390;2023-04-07T03:19:03;19.97;;;11.23;;
76626;SDS011;65519;53.230;10.390;2023-04-07T03:21:28;17.80;;;9.77;;
76626;SDS011;65519;53.230;10.390;2023-04-07T03:23:55;16.27;;;9.95;;
76626;SDS011;65519;53.230;10.390;2023-04-07T03:26:21;19.80;;;10.90;;
76626;SDS011;65519;53.230;10.390;2023-04-07T03:28:46;17.85;;;10.23;;
76626;SDS011;65519;53.230;10.390;2023-04-07T03:31:12;19.60;;;11.47;;
76626;SDS011;65519;53.230;10.390;2023-04-07T03:33:37;17.83;;;10.20;;
76626;SDS011;65519;53.230;10.390;2023-04-07T03:36:02;20.95;;;10.07;;
76626;SDS011;65519;53.230;10.390;2023-04-07T03:38:28;19.00;;;10.55;;
76626;SDS011;65519;53.230;10.390;2023-04-07T03:40:53;17.73;;;9.50;;
76626;SDS011;65519;53.230;10.390;2023-04-07T03:43:19;16.88;;;10.02;;
76626;SDS011;65519;53.230;10.390;2023-04-07T03:45:45;19.35;;;9.55;;
76626;SDS011;65519;53.230;10.390;2023-04-07T03:48:11;17.48;;;9.90;;
76626;SDS011;65519;53.230;10.390;2023-04-07T03:50:37;16.35;;;9.63;;
76626;SDS011;65519;53.230;10.390;2023-04-07T03:53:03;16.75;;;9.43;;
76626;SDS011;65519;53.230;10.390;2023-04-07T03:55:29;17.95;;;10.88;;
76626;SDS011;65519;53.230;10.390;2023-04-07T03:57:54;22.80;;;11.40;;
76626;SDS011;65519;53.230;10.390;2023-04-07T04:00:20;17.05;;;10.55;;
76626;SDS011;65519;53.230;10.390;2023-04-07T04:02:45;21.30;;;10.85;;
76626;SDS011;65519;53.230;10.390;2023-04-07T04:05:11;16.20;;;9.55;;
76626;SDS011;65519;53.230;10.390;2023-04-07T04:07:36;21.15;;;11.07;;
76626;SDS011;65519;53.230;10.390;2023-04-07T04:10:01;16.15;;;9.88;;
76626;SDS011;65519;53.230;10.390;2023-04-07T04:12:27;18.55;;;10.60;;
76626;SDS011;65519;53.230;10.390;2023-04-07T04:14:52;19.10;;;10.27;;
76626;SDS011;65519;53.230;10.390;2023-04-07T04:17:18;15.90;;;9.70;;
76626;SDS011;65519;53.230;10.390;2023-04-07T04:19:43;20.50;;;9.90;;
76626;SDS011;65519;53.230;10.390;2023-04-07T04:22:08;19.23;;;10.40;;
76626;SDS011;65519;53.230;10.390;2023-04-07T04:24:34;17.17;;;10.60;;
76626;SDS011;65519;53.230;10.390;2023-04-07T04:27:00;15.02;;;9.73;;
76626;SDS011;65519;53.230;10.390;2023-04-07T04:29:25;19.85;;;9.57;;
76626;SDS011;65519;53.230;10.390;2023-04-07T04:31:51;19.17;;;10.02;;
76626;SDS011;65519;53.230;10.390;2023-04-07T04:34:16;22.88;;;10.38;;
76626;SDS011;65519;53.230;10.390;2023-04-07T04:36:42;16.73;;;9.75;;
76626;SDS011;65519;53.230;10.390;2023-04-07T04:39:07;18.10;;;9.95;;
76626;SDS011;65519;53.230;10.390;2023-04-07T04:41:33;19.70;;;10.60;;
76626;SDS011;65519;53.230;10.390;2023-04-07T04:43:58;16.80;;;9.83;;
76626;SDS011;65519;53.230;10.390;2023-04-07T04:46:23;20.75;;;9.57;;
76626;SDS011;65519;53.230;10.390;2023-04-07T04:48:49;18.73;;;9.38;;
76626;SDS011;65519;53.230;10.390;2023-04-07T04:51:16;19.65;;;9.65;;
76626;SDS011;65519;53.230;10.390;2023-04-07T04:53:42;22.58;;;9.38;;
76626;SDS011;65519;53.230;10.390;2023-04-07T04:56:07;14.97;;;8.97;;
76626;SDS011;65519;53.230;10.390;2023-04-07T04:58:33;18.77;;;9.25;;
76626;SDS011;65519;53.230;10.390;2023-04-07T05:00:58;20.23;;;9.15;;
76626;SDS011;65519;53.230;10.390;2023-04-07T05:03:25;16.05;;;8.82;;
76626;SDS011;65519;53.230;10.390;2023-04-07T05:05:52;15.63;;;9.35;;
76626;SDS011;65519;53.230;10.390;2023-04-07T05:08:18;13.93;;;8.50;;
76626;SDS011;65519;53.230;10.390;2023-04-07T05:10:43;15.30;;;8.98;;
76626;SDS011;65519;53.230;10.390;2023-04-07T05:13:08;16.55;;;9.38;;
76626;SDS011;65519;53.230;10.390;2023-04-07T05:15:34;16.48;;;8.85;;
76626;SDS011;65519;53.230;10.390;2023-04-07T05:17:59;18.52;;;9.88;;
76626;SDS011;65519;53.230;10.390;2023-04-07T05:20:25;16.93;;;9.37;;
76626;SDS011;65519;53.230;10.390;2023-04-07T05:22:50;15.80;;;8.88;;
76626;SDS011;65519;53.230;10.390;2023-04-07T05:25:15;19.75;;;9.38;;
76626;SDS011;65519;53.230;10.390;2023-04-07T05:27:41;19.25;;;9.90;;
76626;SDS011;65519;53.230;10.390;2023-04-07T05:30:06;15.73;;;9.73;;
76626;SDS011;65519;53.230;10.390;2023-04-07T05:32:32;19.30;;;10.55;;
76626;SDS011;65519;53.230;10.390;2023-04-07T05:34:58;18.77;;;9.40;;
76626;SDS011;65519;53.230;10.390;2023-04-07T05:37:23;16.38;;;9.20;;
76626;SDS011;65519;53.230;10.390;2023-04-07T05:39:48;13.52;;;8.05;;
76626;SDS011;65519;53.230;10.390;2023-04-07T05:42:14;17.75;;;8.82;;
76626;SDS011;65519;53.230;10.390;2023-04-07T05:44:39;18.67;;;9.30;;
76626;SDS011;65519;53.230;10.390;2023-04-07T05:47:05;16.58;;;8.70;;
76626;SDS011;65519;53.230;10.390;2023-04-07T05:49:33;39.05;;;17.48;;
76626;SDS011;65519;53.230;10.390;2023-04-07T05:51:59;14.50;;;8.63;;
76626;SDS011;65519;53.230;10.390;2023-04-07T05:54:25;17.27;;;8.40;;
76626;SDS011;65519;53.230;10.390;2023-04-07T05:56:50;16.73;;;9.10;;
76626;SDS011;65519;53.230;10.390;2023-04-07T05:59:15;21.20;;;11.00;;
76626;SDS011;65519;53.230;10.390;2023-04-07T06:01:41;23.53;;;11.07;;
76626;SDS011;65519;53.230;10.390;2023-04-07T06:04:06;16.55;;;8.80;;
76626;SDS011;65519;53.230;10.390;2023-04-07T06:06:32;19.45;;;9.75;;
76626;SDS011;65519;53.230;10.390;2023-04-07T06:08:57;26.60;;;10.17;;
76626;SDS011;65519;53.230;10.390;2023-04-07T06:11:22;18.63;;;9.45;;
76626;SDS011;65519;53.230;10.390;2023-04-07T06:13:48;27.58;;;11.57;;
76626;SDS011;65519;53.230;10.390;2023-04-07T06:16:13;20.40;;;11.13;;
76626;SDS011;65519;53.230;10.390;2023-04-07T06:18:39;25.70;;;10.77;;
76626;SDS011;65519;53.230;10.390;2023-04-07T06:21:04;21.23;;;10.80;;
76626;SDS011;65519;53.230;10.390;2023-04-07T06:23:30;22.40;;;10.75;;
76626;SDS011;65519;53.230;10.390;2023-04-07T06:25:55;19.30;;;10.35;;
76626;SDS011;65519;53.230;10.390;2023-04-07T06:28:21;20.55;;;10.18;;
76626;SDS011;65519;53.230;10.390;2023-04-07T06:30:46;19.55;;;9.10;;
76626;SDS011;65519;53.230;10.390;2023-04-07T06:33:12;16.70;;;9.73;;
76626;SDS011;65519;53.230;10.390;2023-04-07T06:35:40;19.27;;;9.95;;
76626;SDS011;65519;53.230;10.390;2023-04-07T06:38:05;19.65;;;9.52;;
76626;SDS011;65519;53.230;10.390;2023-04-07T06:40:32;21.17;;;10.07;;
76626;SDS011;65519;53.230;10.390;2023-04-07T06:42:57;19.38;;;9.68;;
76626;SDS011;65519;53.230;10.390;2023-04-07T06:45:23;19.58;;;10.10;;
76626;SDS011;65519;53.230;10.390;2023-04-07T06:47:48;25.65;;;11.13;;
76626;SDS011;65519;53.230;10.390;2023-04-07T06:50:14;21.98;;;9.75;;
76626;SDS011;65519;53.230;10.390;2023-04-07T06:52:39;24.95;;;10.45;;
76626;SDS011;65519;53.230;10.390;2023-04-07T06:55:05;22.55;;;9.70;;
76626;SDS011;65519;53.230;10.390;2023-04-07T06:57:31;25.13;;;9.88;;
76626;SDS011;65519;53.230;10.390;2023-04-07T06:59:57;18.30;;;9.60;;
76626;SDS011;65519;53.230;10.390;2023-04-07T07:02:22;18.85;;;9.32;;
76626;SDS011;65519;53.230;10.390;2023-04-07T07:04:48;19.75;;;10.43;;
76626;SDS011;65519;53.230;10.390;2023-04-07T07:07:13;21.33;;;9.77;;
76626;SDS011;65519;53.230;10.390;2023-04-07T07:09:38;17.92;;;8.88;;
76626;SDS011;65519;53.230;10.390;2023-04-07T07:12:04;22.13;;;9.38;;
76626;SDS011;65519;53.230;10.390;2023-04-07T07:14:30;17.50;;;8.32;;
76626;SDS011;65519;53.230;10.390;2023-04-07T07:16:55;21.48;;;8.90;;
76626;SDS011;65519;53.230;10.390;2023-04-07T07:19:21;20.20;;;9.25;;
76626;SDS011;65519;53.230;10.390;2023-04-07T07:21:46;19.35;;;9.20;;
76626;SDS011;65519;53.230;10.390;2023-04-07T07:24:11;14.90;;;8.43;;
76626;SDS011;65519;53.230;10.390;2023-04-07T07:26:37;22.42;;;10.85;;
76626;SDS011;65519;53.230;10.390;2023-04-07T07:29:02;17.55;;;9.93;;
76626;SDS011;65519;53.230;10.390;2023-04-07T07:31:27;18.42;;;10.80;;
76626;SDS011;65519;53.230;10.390;2023-04-07T07:33:53;20.23;;;9.70;;
76626;SDS011;65519;53.230;10.390;2023-04-07T07:36:18;18.90;;;8.82;;
76626;SDS011;65519;53.230;10.390;2023-04-07T07:38:44;17.40;;;9.90;;
76626;SDS011;65519;53.230;10.390;2023-04-07T07:41:09;16.85;;;8.65;;
76626;SDS011;65519;53.230;10.390;2023-04-07T07:43:34;20.58;;;9.50;;
76626;SDS011;65519;53.230;10.390;2023-04-07T07:46:01;17.52;;;9.48;;
76626;SDS011;65519;53.230;10.390;2023-04-07T07:48:26;23.23;;;9.38;;
76626;SDS011;65519;53.230;10.390;2023-04-07T07:50:52;20.45;;;10.18;;
76626;SDS011;65519;53.230;10.390;2023-04-07T07:53:17;22.20;;;10.52;;
76626;SDS011;65519;53.230;10.390;2023-04-07T07:55:44;22.30;;;10.80;;
76626;SDS011;65519;53.230;10.390;2023-04-07T07:58:10;31.23;;;13.55;;
76626;SDS011;65519;53.230;10.390;2023-04-07T08:00:35;55.33;;;24.15;;
76626;SDS011;65519;53.230;10.390;2023-04-07T08:03:00;21.75;;;11.00;;
76626;SDS011;65519;53.230;10.390;2023-04-07T08:05:26;49.67;;;20.30;;
76626;SDS011;65519;53.230;10.390;2023-04-07T08:07:51;15.88;;;9.13;;
76626;SDS011;65519;53.230;10.390;2023-04-07T08:10:17;19.60;;;9.48;;
76626;SDS011;65519;53.230;10.390;2023-04-07T08:12:44;21.30;;;9.07;;
76626;SDS011;65519;53.230;10.390;2023-04-07T08:15:09;22.33;;;9.07;;
76626;SDS011;65519;53.230;10.390;2023-04-07T08:17:35;18.65;;;8.70;;
76626;SDS011;65519;53.230;10.390;2023-04-07T08:20:01;22.70;;;9.77;;
76626;SDS011;65519;53.230;10.390;2023-04-07T08:22:27;22.10;;;9.00;;
76626;SDS011;65519;53.230;10.390;2023-04-07T08:24:53;15.75;;;8.20;;
76626;SDS011;65519;53.230;10.390;2023-04-07T08:27:18;14.27;;;7.70;;
76626;SDS011;65519;53.230;10.390;2023-04-07T08:29:44;19.08;;;9.15;;
76626;SDS011;65519;53.230;10.390;2023-04-07T08:32:10;15.35;;;8.40;;
76626;SDS011;65519;53.230;10.390;2023-04-07T08:34:35;18.73;;;9.75;;
76626;SDS011;65519;53.230;10.390;2023-04-07T08:37:00;19.83;;;9.40;;
76626;SDS011;65519;53.230;10.390;2023-04-07T08:39:26;17.77;;;8.43;;
76626;SDS011;65519;53.230;10.390;2023-04-07T08:41:52;18.35;;;9.07;;
76626;SDS011;65519;53.230;10.390;2023-04-07T08:44:19;17.85;;;8.40;;
76626;SDS011;65519;53.230;10.390;2023-04-07T08:46:46;16.85;;;7.90;;
76626;SDS011;65519;53.230;10.390;2023-04-07T08:49:13;20.70;;;8.73;;
76626;SDS011;65519;53.230;10.390;2023-04-07T08:51:45;17.30;;;7.68;;
76626;SDS011;65519;53.230;10.390;2023-04-07T08:54:12;17.92;;;8.35;;
76626;SDS011;65519;53.230;10.390;2023-04-07T08:56:40;19.73;;;8.77;;
76626;SDS011;65519;53.230;10.390;2023-04-07T08:59:07;18.73;;;8.55;;
76626;SDS011;65519;53.230;10.390;2023-04-07T09:01:34;17.58;;;8.30;;
76626;SDS011;65519;53.230;10.390;2023-04-07T09:04:01;13.85;;;8.20;;
76626;SDS011;65519;53.230;10.390;2023-04-07T09:06:30;14.32;;;7.45;;
76626;SDS011;65519;53.230;10.390;2023-04-07T09:08:57;15.95;;;7.35;;
76626;SDS011;65519;53.230;10.390;2023-04-07T09:11:23;16.52;;;8.35;;
76626;SDS011;65519;53.230;10.390;2023-04-07T09:13:49;20.63;;;10.38;;
76626;SDS011;65519;53.230;10.390;2023-04-07T09:16:15;15.55;;;7.75;;
76626;SDS011;65519;53.230;10.390;2023-04-07T09:18:40;23.02;;;9.23;;
76626;SDS011;65519;53.230;10.390;2023-04-07T09:21:06;15.40;;;8.25;;
76626;SDS011;65519;53.230;10.390;2023-04-07T09:26:00;17.60;;;7.95;;
76626;SDS011;65519;53.230;10.390;2023-04-07T09:28:47;17.50;;;8.23;;
76626;SDS011;65519;53.230;10.390;2023-04-07T09:31:22;20.17;;;9.43;;
76626;SDS011;65519;53.230;10.390;2023-04-07T09:34:16;19.10;;;9.02;;
76626;SDS011;65519;53.230;10.390;2023-04-07T09:36:48;25.05;;;11.63;;
76626;SDS011;65519;53.230;10.390;2023-04-07T09:39:14;25.80;;;12.90;;
76626;SDS011;65519;53.230;10.390;2023-04-07T09:41:39;25.67;;;11.85;;
76626;SDS011;65519;53.230;10.390;2023-04-07T09:44:05;21.80;;;11.35;;
76626;SDS011;65519;53.230;10.390;2023-04-07T09:46:31;18.00;;;8.68;;
76626;SDS011;65519;53.230;10.390;2023-04-07T09:49:03;14.35;;;8.20;;
76626;SDS011;65519;53.230;10.390;2023-04-07T09:51:32;16.63;;;8.38;;
76626;SDS011;65519;53.230;10.390;2023-04-07T09:54:00;14.93;;;7.85;;
76626;SDS011;65519;53.230;10.390;2023-04-07T09:56:25;18.63;;;9.37;;
76626;SDS011;65519;53.230;10.390;2023-04-07T09:58:53;24.77;;;10.68;;
76626;SDS011;65519;53.230;10.390;2023-04-07T10:01:19;18.20;;;9.55;;
76626;SDS011;65519;53.230;10.390;2023-04-07T10:03:46;15.68;;;9.77;;
76626;SDS011;65519;53.230;10.390;2023-04-07T10:06:12;15.90;;;8.85;;
76626;SDS011;65519;53.230;10.390;2023-04-07T10:08:39;14.50;;;8.20;;
76626;SDS011;65519;53.230;10.390;2023-04-07T10:11:06;21.25;;;9.02;;
76626;SDS011;65519;53.230;10.390;2023-04-07T10:13:33;18.63;;;8.68;;
76626;SDS011;65519;53.230;10.390;2023-04-07T10:18:28;12.75;;;8.25;;
76626;SDS011;65519;53.230;10.390;2023-04-07T10:20:55;17.40;;;8.05;;
76626;SDS011;65519;53.230;10.390;2023-04-07T10:23:24;16.58;;;7.32;;
76626;SDS011;65519;53.230;10.390;2023-04-07T10:25:53;17.95;;;8.77;;
76626;SDS011;65519;53.230;10.390;2023-04-07T10:28:22;15.85;;;8.20;;
76626;SDS011;65519;53.230;10.390;2023-04-07T10:30:50;18.90;;;9.30;;
76626;SDS011;65519;53.230;10.390;2023-04-07T10:33:16;24.33;;;12.00;;
76626;SDS011;65519;53.230;10.390;2023-04-07T10:38:31;16.55;;;8.73;;
76626;SDS011;65519;53.230;10.390;2023-04-07T10:40:56;16.60;;;8.75;;
76626;SDS011;65519;53.230;10.390;2023-04-07T10:43:38;15.85;;;9.10;;
76626;SDS011;65519;53.230;10.390;2023-04-07T10:46:05;16.85;;;8.13;;
76626;SDS011;65519;53.230;10.390;2023-04-07T10:48:31;15.48;;;7.22;;
76626;SDS011;65519;53.230;10.390;2023-04-07T10:53:28;19.27;;;9.73;;
76626;SDS011;65519;53.230;10.390;2023-04-07T10:55:55;18.63;;;8.90;;
76626;SDS011;65519;53.230;10.390;2023-04-07T10:58:25;19.98;;;8.15;;
76626;SDS011;65519;53.230;10.390;2023-04-07T11:03:21;15.73;;;8.85;;
76626;SDS011;65519;53.230;10.390;2023-04-07T11:05:47;18.48;;;9.27;;
76626;SDS011;65519;53.230;10.390;2023-04-07T11:08:12;18.92;;;9.77;;
76626;SDS011;65519;53.230;10.390;2023-04-07T11:10:38;14.87;;;8.47;;
76626;SDS011;65519;53.230;10.390;2023-04-07T11:13:04;17.98;;;9.50;;
76626;SDS011;65519;53.230;10.390;2023-04-07T11:23:12;87.43;;;33.58;;
76626;SDS011;65519;53.230;10.390;2023-04-07T11:25:42;16.13;;;8.23;;
76626;SDS011;65519;53.230;10.390;2023-04-07T11:28:09;25.23;;;8.43;;
76626;SDS011;65519;53.230;10.390;2023-04-07T11:30:36;17.85;;;9.02;;
76626;SDS011;65519;53.230;10.390;2023-04-07T11:33:02;16.45;;;8.23;;
76626;SDS011;65519;53.230;10.390;2023-04-07T11:35:28;23.98;;;11.30;;
76626;SDS011;65519;53.230;10.390;2023-04-07T11:37:57;17.45;;;9.10;;
76626;SDS011;65519;53.230;10.390;2023-04-07T11:40:30;16.65;;;8.80;;
76626;SDS011;65519;53.230;10.390;2023-04-07T11:42:58;18.00;;;9.18;;
76626;SDS011;65519;53.230;10.390;2023-04-07T11:45:23;11.38;;;7.78;;
76626;SDS011;65519;53.230;10.390;2023-04-07T11:47:49;14.67;;;7.53;;
76626;SDS011;65519;53.230;10.390;2023-04-07T11:50:15;15.82;;;7.82;;
76626;SDS011;65519;53.230;10.390;2023-04-07T11:52:43;16.45;;;8.52;;
76626;SDS011;65519;53.230;10.390;2023-04-07T11:57:42;13.77;;;7.80;;
76626;SDS011;65519;53.230;10.390;2023-04-07T12:00:12;13.93;;;8.02;;
76626;SDS011;65519;53.230;10.390;2023-04-07T12:02:38;14.40;;;7.30;;
76626;SDS011;65519;53.230;10.390;2023-04-07T12:05:04;13.40;;;7.68;;
76626;SDS011;65519;53.230;10.390;2023-04-07T12:07:30;13.77;;;7.45;;
76626;SDS011;65519;53.230;10.390;2023-04-07T12:09:56;17.00;;;8.02;;
76626;SDS011;65519;53.230;10.390;2023-04-07T12:12:25;14.07;;;7.18;;
76626;SDS011;65519;53.230;10.390;2023-04-07T12:14:51;13.85;;;8.82;;
76626;SDS011;65519;53.230;10.390;2023-04-07T12:17:20;15.20;;;7.07;;
76626;SDS011;65519;53.230;10.390;2023-04-07T12:19:47;12.75;;;6.60;;
76626;SDS011;65519;53.230;10.390;2023-04-07T12:22:12;16.33;;;7.22;;
76626;SDS011;65519;53.230;10.390;2023-04-07T12:24:38;14.30;;;7.28;;
76626;SDS011;65519;53.230;10.390;2023-04-07T12:27:03;12.02;;;7.00;;
76626;SDS011;65519;53.230;10.390;2023-04-07T12:29:29;14.73;;;6.78;;
76626;SDS011;65519;53.230;10.390;2023-04-07T12:31:54;11.87;;;6.13;;
76626;SDS011;65519;53.230;10.390;2023-04-07T12:34:20;12.40;;;6.55;;
76626;SDS011;65519;53.230;10.390;2023-04-07T12:36:46;11.13;;;6.40;;
76626;SDS011;65519;53.230;10.390;2023-04-07T12:39:12;11.75;;;6.55;;
76626;SDS011;65519;53.230;10.390;2023-04-07T12:41:38;12.60;;;6.60;;
76626;SDS011;65519;53.230;10.390;2023-04-07T12:44:03;8.82;;;6.07;;
76626;SDS011;65519;53.230;10.390;2023-04-07T12:46:29;13.90;;;6.88;;
76626;SDS011;65519;53.230;10.390;2023-04-07T12:48:54;9.80;;;5.93;;
76626;SDS011;65519;53.230;10.390;2023-04-07T12:51:20;12.30;;;6.45;;
76626;SDS011;65519;53.230;10.390;2023-04-07T12:53:46;11.15;;;7.35;;
76626;SDS011;65519;53.230;10.390;2023-04-07T12:56:12;15.68;;;8.05;;
76626;SDS011;65519;53.230;10.390;2023-04-07T12:58:38;9.43;;;5.93;;
76626;SDS011;65519;53.230;10.390;2023-04-07T13:01:04;16.67;;;8.57;;
76626;SDS011;65519;53.230;10.390;2023-04-07T13:03:30;10.10;;;6.15;;
76626;SDS011;65519;53.230;10.390;2023-04-07T13:05:55;10.43;;;6.35;;
76626;SDS011;65519;53.230;10.390;2023-04-07T13:08:25;12.20;;;6.18;;
76626;SDS011;65519;53.230;10.390;2023-04-07T13:10:51;13.65;;;6.30;;
76626;SDS011;65519;53.230;10.390;2023-04-07T13:13:16;10.75;;;6.47;;
76626;SDS011;65519;53.230;10.390;2023-04-07T13:15:42;9.40;;;5.60;;
76626;SDS011;65519;53.230;10.390;2023-04-07T13:18:07;11.23;;;6.90;;
76626;SDS011;65519;53.230;10.390;2023-04-07T13:20:33;10.95;;;6.25;;
76626;SDS011;65519;53.230;10.390;2023-04-07T13:22:58;9.80;;;6.30;;
76626;SDS011;65519;53.230;10.390;2023-04-07T13:25:23;13.37;;;6.00;;
76626;SDS011;65519;53.230;10.390;2023-04-07T13:27:49;12.02;;;6.50;;
76626;SDS011;65519;53.230;10.390;2023-04-07T13:30:14;10.30;;;6.38;;
76626;SDS011;65519;53.230;10.390;2023-04-07T13:32:40;10.75;;;5.95;;
76626;SDS011;65519;53.230;10.390;2023-04-07T13:35:06;13.38;;;6.68;;
76626;SDS011;65519;53.230;10.390;2023-04-07T13:37:31;11.63;;;6.10;;
76626;SDS011;65519;53.230;10.390;2023-04-07T13:39:57;8.65;;;5.53;;
76626;SDS011;65519;53.230;10.390;2023-04-07T13:42:22;12.27;;;6.47;;
76626;SDS011;65519;53.230;10.390;2023-04-07T13:44:48;11.82;;;5.78;;
76626;SDS011;65519;53.230;10.390;2023-04-07T13:47:14;9.23;;;4.80;;
76626;SDS011;65519;53.230;10.390;2023-04-07T13:49:47;9.43;;;5.60;;
76626;SDS011;65519;53.230;10.390;2023-04-07T13:52:13;7.95;;;4.25;;
76626;SDS011;65519;53.230;10.390;2023-04-07T13:54:39;5.53;;;3.95;;
76626;SDS011;65519;53.230;10.390;2023-04-07T13:57:05;7.78;;;3.97;;
76626;SDS011;65519;53.230;10.390;2023-04-07T13:59:30;8.48;;;3.95;;
76626;SDS011;65519;53.230;10.390;2023-04-07T14:01:55;8.10;;;4.13;;
76626;SDS011;65519;53.230;10.390;2023-04-07T14:04:21;6.95;;;3.33;;
76626;SDS011;65519;53.230;10.390;2023-04-07T14:06:46;7.32;;;2.95;;
76626;SDS011;65519;53.230;10.390;2023-04-07T14:09:12;9.43;;;3.25;;
76626;SDS011;65519;53.230;10.390;2023-04-07T14:11:37;5.82;;;2.92;;
76626;SDS011;65519;53.230;10.390;2023-04-07T14:14:03;4.22;;;2.88;;
76626;SDS011;65519;53.230;10.390;2023-04-07T14:16:28;4.88;;;2.70;;
76626;SDS011;65519;53.230;10.390;2023-04-07T14:18:54;7.03;;;3.50;;
76626;SDS011;65519;53.230;10.390;2023-04-07T14:21:20;8.55;;;3.28;;
76626;SDS011;65519;53.230;10.390;2023-04-07T14:23:45;8.40;;;4.45;;
76626;SDS011;65519;53.230;10.390;2023-04-07T14:26:11;5.90;;;3.73;;
76626;SDS011;65519;53.230;10.390;2023-04-07T14:28:37;6.00;;;3.33;;
76626;SDS011;65519;53.230;10.390;2023-04-07T14:31:02;5.57;;;3.47;;
76626;SDS011;65519;53.230;10.390;2023-04-07T14:33:28;6.38;;;2.97;;
76626;SDS011;65519;53.230;10.390;2023-04-07T14:35:53;5.32;;;3.20;;
76626;SDS011;65519;53.230;10.390;2023-04-07T14:38:18;5.10;;;3.25;;
76626;SDS011;65519;53.230;10.390;2023-04-07T14:40:48;7.80;;;3.88;;